createdAt,value
2022-11-21T00:01:57.209Z,102144.78
2022-11-21T00:04:43.938Z,102142.16
2022-11-21T00:07:30.662Z,102152.59
2022-11-21T00:10:17.455Z,102133.38
2022-11-21T00:13:04.222Z,102142.06
2022-11-21T00:15:50.978Z,102140.28
2022-11-21T00:18:37.703Z,102146.41
2022-11-21T00:21:30.505Z,102143.81
2022-11-21T00:24:17.213Z,102149.06
2022-11-21T00:27:03.895Z,102146.47
2022-11-21T00:29:50.762Z,102149.06
2022-11-21T00:32:37.443Z,102129.78
2022-11-21T00:35:25.050Z,102147.31
2022-11-21T00:38:11.779Z,102143.81
2022-11-21T00:40:58.511Z,102143.88
2022-11-21T00:43:45.205Z,102096.50
2022-11-21T00:46:31.898Z,102131.69
2022-11-21T00:49:18.723Z,102032.38
2022-11-21T00:52:05.438Z,102129.00
2022-11-21T00:54:52.152Z,102140.44
2022-11-21T00:57:38.862Z,102150.00
2022-11-21T01:00:26.451Z,102141.31
2022-11-21T01:03:13.179Z,102142.16
2022-11-21T01:05:59.883Z,102142.16
2022-11-21T01:08:46.598Z,102137.81
2022-11-21T01:11:36.174Z,102141.34
2022-11-21T01:14:23.262Z,102130.78
2022-11-21T01:17:09.971Z,102142.13
2022-11-21T01:19:56.680Z,102150.03
2022-11-21T01:22:43.507Z,102156.94
2022-11-21T01:25:30.202Z,102150.78
2022-11-21T01:28:16.925Z,102137.69
2022-11-21T01:31:03.707Z,102133.31
2022-11-21T01:33:50.903Z,102142.03
2022-11-21T01:36:40.735Z,102141.16
2022-11-21T01:39:28.599Z,102014.63
2022-11-21T01:42:15.303Z,102138.41
2022-11-21T01:45:13.230Z,102157.53
2022-11-21T01:47:59.919Z,102140.13
2022-11-21T01:50:46.768Z,102142.78
2022-11-21T01:53:33.599Z,102148.88
2022-11-21T01:56:21.322Z,102138.44
2022-11-21T01:59:09.795Z,102141.91
2022-11-21T02:01:57.878Z,102147.13
2022-11-21T02:04:49.102Z,102140.16
2022-11-21T02:07:39.795Z,102132.34
2022-11-21T02:10:28.709Z,102134.94
2022-11-21T02:13:18.617Z,102066.31
2022-11-21T02:16:05.322Z,102125.22
2022-11-21T02:18:52.062Z,102142.81
2022-11-21T02:22:07.669Z,102140.22
2022-11-21T02:25:07.213Z,102135.88
2022-11-21T02:27:54.698Z,102137.59
2022-11-21T02:30:41.458Z,102135.91
2022-11-21T02:33:29.461Z,102135.00
2022-11-21T02:36:20.977Z,102142.81
2022-11-21T02:39:07.826Z,102131.44
2022-11-21T02:41:58.079Z,102137.59
2022-11-21T02:44:52.597Z,102141.03
2022-11-21T02:47:42.343Z,102141.09
2022-11-21T02:50:32.049Z,102140.22
2022-11-21T02:53:19.193Z,102124.34
2022-11-21T02:56:06.548Z,102157.59
2022-11-21T02:58:53.531Z,102147.16
2022-11-21T03:01:40.335Z,102139.25
2022-11-21T03:04:27.365Z,102147.13
2022-11-21T03:07:14.620Z,102148.00
2022-11-21T03:10:01.390Z,102120.78
2022-11-21T03:12:48.307Z,102133.13
2022-11-21T03:15:35.882Z,102132.19
2022-11-21T03:18:23.593Z,102113.81
2022-11-21T03:21:10.307Z,102136.56
2022-11-21T03:23:57.018Z,102140.16
2022-11-21T03:26:43.813Z,102126.97
2022-11-21T03:29:30.552Z,102136.63
2022-11-21T03:32:17.383Z,102105.66
2022-11-21T03:35:04.069Z,102138.31
2022-11-21T03:37:50.798Z,102130.41
2022-11-21T03:40:37.635Z,102141.78
2022-11-21T03:43:27.579Z,102112.75
2022-11-21T03:46:14.292Z,102150.53
2022-11-21T03:49:00.995Z,102146.16
2022-11-21T03:51:47.911Z,102146.13
2022-11-21T03:54:34.639Z,102147.03
2022-11-21T03:57:21.338Z,102144.41
2022-11-21T04:00:08.080Z,102151.34
2022-11-21T04:02:54.813Z,102149.59
2022-11-21T04:05:41.575Z,102041.56
2022-11-21T04:08:28.310Z,102140.78
2022-11-21T04:11:15.082Z,102139.03
2022-11-21T04:14:02.149Z,102132.78
2022-11-21T04:16:48.871Z,102166.25
2022-11-21T04:19:35.605Z,102163.63
2022-11-21T04:22:22.322Z,102165.38
2022-11-21T04:25:09.051Z,102170.56
2022-11-21T04:27:55.783Z,102182.00
2022-11-21T04:30:42.799Z,102177.63
2022-11-21T04:33:30.900Z,102177.69
2022-11-21T04:36:17.711Z,102186.38
2022-11-21T04:39:04.425Z,102179.41
2022-11-21T04:41:51.110Z,102147.78
2022-11-21T04:44:37.827Z,102182.94
2022-11-21T04:47:24.601Z,102172.41
2022-11-21T04:50:11.466Z,102185.53
2022-11-21T04:52:58.198Z,102190.72
2022-11-21T04:55:49.835Z,102096.69
2022-11-21T04:58:36.608Z,102107.22
2022-11-21T05:01:27.720Z,102150.31
2022-11-21T05:04:14.576Z,102200.34
2022-11-21T05:07:01.339Z,102198.66
2022-11-21T05:09:48.075Z,102167.81
2022-11-21T05:12:33.363Z,102198.59
2022-11-21T05:15:24.453Z,102193.41
2022-11-21T05:18:11.962Z,102098.50
2022-11-21T05:20:58.812Z,102212.63
2022-11-21T05:23:45.573Z,102208.31
2022-11-21T05:26:32.301Z,102207.44
2022-11-21T05:29:22.658Z,102207.44
2022-11-21T05:32:11.926Z,102204.88
2022-11-21T05:34:58.649Z,102217.06
2022-11-21T05:37:45.460Z,102208.34
2022-11-21T05:40:32.502Z,102210.97
2022-11-21T05:43:17.532Z,102222.31
2022-11-21T05:46:04.258Z,102215.28
2022-11-21T05:48:50.989Z,102203.06
2022-11-21T05:51:38.959Z,102229.28
2022-11-21T05:54:26.045Z,102219.72
2022-11-21T05:57:12.947Z,102206.56
2022-11-21T05:59:59.631Z,102162.56
2022-11-21T06:02:45.082Z,102218.88
2022-11-21T06:05:31.895Z,102220.63
2022-11-21T06:08:18.616Z,102218.84
2022-11-21T06:11:05.307Z,102235.47
2022-11-21T06:13:52.365Z,102231.13
2022-11-21T06:16:39.567Z,102229.31
2022-11-21T06:19:26.342Z,102225.84
2022-11-21T06:22:13.022Z,102208.25
2022-11-21T06:24:59.767Z,102235.56
2022-11-21T06:27:46.555Z,102241.63
2022-11-21T06:30:33.401Z,102241.63
2022-11-21T06:33:20.135Z,102238.16
2022-11-21T06:36:06.973Z,102214.41
2022-11-21T06:38:54.577Z,102197.69
2022-11-21T06:41:46.433Z,102239.03
2022-11-21T06:44:33.165Z,102252.13
2022-11-21T06:47:19.862Z,102256.50
2022-11-21T06:50:06.589Z,102258.25
2022-11-21T06:52:54.130Z,102180.88
2022-11-21T08:00:43.915Z,102296.41
2022-11-21T08:03:32.140Z,102299.00
2022-11-21T08:06:21.894Z,102303.34
2022-11-21T08:09:12.991Z,102306.00
2022-11-21T08:11:59.698Z,102307.59
2022-11-21T08:14:46.490Z,102312.94
2022-11-21T08:17:33.252Z,102310.34
2022-11-21T08:20:20.034Z,102217.09
2022-11-21T08:23:06.830Z,102305.03
2022-11-21T08:26:00.891Z,102307.72
2022-11-21T08:28:47.899Z,102306.84
2022-11-21T08:31:34.701Z,102306.84
2022-11-21T08:34:21.434Z,102313.81
2022-11-21T08:37:08.203Z,102314.66
2022-11-21T08:39:54.910Z,102316.41
2022-11-21T08:42:41.784Z,102319.81
2022-11-21T08:45:29.050Z,102322.44
2022-11-21T08:48:16.441Z,102315.47
2022-11-21T08:50:43.211Z,102307.56
2022-11-21T08:53:29.940Z,102319.06
2022-11-21T08:56:16.651Z,102323.41
2022-11-21T08:59:03.354Z,102310.28
2022-11-21T09:01:50.132Z,102287.44
2022-11-21T09:04:36.888Z,102310.44
2022-11-21T09:07:23.644Z,102305.16
2022-11-21T09:10:10.396Z,102299.09
2022-11-21T09:12:57.178Z,102313.94
2022-11-21T09:15:42.688Z,102308.72
2022-11-21T09:18:31.695Z,102300.88
2022-11-21T09:21:18.407Z,102280.63
2022-11-21T09:24:05.254Z,102305.28
2022-11-21T09:26:52.045Z,102307.03
2022-11-21T09:29:38.787Z,102297.47
2022-11-21T09:32:25.515Z,102303.56
2022-11-21T09:35:12.243Z,102259.69
2022-11-21T09:37:59.910Z,102279.97
2022-11-21T09:40:48.929Z,102294.06
2022-11-21T09:43:58.648Z,102287.91
2022-11-21T09:46:52.390Z,102282.63
2022-11-21T09:49:42.135Z,102293.91
2022-11-21T09:52:33.328Z,102285.19
2022-11-21T09:55:24.911Z,102279.88
2022-11-21T09:58:11.655Z,102280.75
2022-11-21T10:00:58.614Z,102291.16
2022-11-21T10:03:49.902Z,102269.25
2022-11-21T10:06:42.658Z,102284.16
2022-11-21T10:09:38.391Z,102283.25
2022-11-21T10:12:58.526Z,102273.63
2022-11-21T10:16:22.188Z,102281.38
2022-11-21T10:19:25.696Z,102277.81
2022-11-21T10:22:31.083Z,102279.56
2022-11-21T10:25:34.563Z,102167.03
2022-11-21T10:28:28.477Z,102277.78
2022-11-21T10:31:18.462Z,102263.75
2022-11-21T10:33:45.662Z,102240.81
2022-11-21T10:36:38.454Z,102274.31
2022-11-21T10:39:54.548Z,102267.38
2022-11-21T10:43:04.355Z,102270.00
2022-11-21T10:45:51.063Z,102275.25
2022-11-21T10:48:37.813Z,102268.28
2022-11-21T10:51:33.214Z,102263.03
2022-11-21T10:54:27.957Z,102255.19
2022-11-21T10:57:19.343Z,102259.47
2022-11-21T11:00:35.097Z,102247.28
2022-11-21T11:03:25.979Z,102255.97
2022-11-21T11:06:16.973Z,102245.53
2022-11-21T11:09:11.671Z,102255.16
2022-11-21T11:11:58.470Z,102246.44
2022-11-21T11:14:51.888Z,102252.50
2022-11-21T11:17:48.292Z,102238.50
2022-11-21T11:21:01.735Z,102240.22
2022-11-21T11:23:48.451Z,102243.75
2022-11-21T11:26:48.467Z,102249.88
2022-11-21T11:29:41.081Z,102242.84
2022-11-21T11:32:39.347Z,102222.66
2022-11-21T11:35:32.059Z,102243.72
2022-11-21T11:38:24.563Z,102238.53
2022-11-21T11:41:11.858Z,102229.00
2022-11-21T11:44:23.330Z,102231.63
2022-11-21T11:47:23.524Z,102226.41
2022-11-21T11:50:33.929Z,102222.03
2022-11-21T11:53:27.486Z,102228.13
2022-11-21T11:56:54.584Z,102233.38
2022-11-21T11:59:52.588Z,102241.22
2022-11-21T12:02:49.667Z,102212.34
2022-11-21T12:05:43.715Z,102170.22
2022-11-21T12:08:41.778Z,102145.66
2022-11-21T12:12:02.064Z,102223.94
2022-11-21T12:14:59.540Z,102231.84
2022-11-21T12:18:10.955Z,102226.59
2022-11-21T12:21:23.514Z,102224.03
2022-11-21T12:24:24.929Z,102222.28
2022-11-21T12:27:39.514Z,102219.66
2022-11-21T12:30:41.020Z,102219.72
2022-11-21T12:33:49.346Z,102220.63
2022-11-21T12:36:47.999Z,102214.56
2022-11-21T12:40:12.112Z,102213.69
2022-11-21T12:43:16.651Z,102211.06
2022-11-21T12:46:22.409Z,102204.03
2022-11-21T12:49:32.606Z,102208.41
2022-11-21T12:52:40.084Z,102185.59
2022-11-21T12:55:38.123Z,102203.16
2022-11-21T12:58:28.132Z,102187.50
2022-11-21T13:01:27.047Z,102193.63
2022-11-21T13:04:29.142Z,102190.16
2022-11-21T13:07:17.544Z,102133.16
2022-11-21T13:10:08.585Z,102178.88
2022-11-21T13:13:34.302Z,102169.28
2022-11-21T13:16:28.691Z,102170.19
2022-11-21T13:19:15.743Z,102164.97
2022-11-21T13:22:02.449Z,102166.63
2022-11-21T13:25:04.224Z,102157.03
2022-11-21T13:27:55.758Z,102152.44
2022-11-21T13:30:44.401Z,102163.09
2022-11-21T13:33:51.393Z,102160.50
2022-11-21T13:36:50.130Z,102157.03
2022-11-21T13:39:36.792Z,102162.25
2022-11-21T13:42:27.160Z,102101.63
2022-11-21T13:45:14.222Z,102077.94
2022-11-21T13:48:25.438Z,102159.66
2022-11-21T13:51:30.981Z,102169.25
2022-11-21T13:54:44.246Z,102157.09
2022-11-21T13:57:54.082Z,102155.31
2022-11-21T14:00:40.736Z,102155.28
2022-11-21T14:04:04.724Z,102156.19
2022-11-21T14:07:04.457Z,102155.28
2022-11-21T14:10:07.678Z,102147.44
2022-11-21T14:13:00.687Z,102143.97
2022-11-21T14:16:05.435Z,102142.19
2022-11-21T14:18:52.838Z,102140.47
2022-11-21T14:21:43.901Z,102034.22
2022-11-21T14:24:39.640Z,102136.94
2022-11-21T14:27:38.551Z,102131.72
2022-11-21T14:30:49.875Z,102130.91
2022-11-21T14:33:47.132Z,102138.72
2022-11-21T14:36:43.689Z,102123.84
2022-11-21T14:39:41.952Z,102062.38
2022-11-21T14:42:35.560Z,102113.41
2022-11-21T14:45:43.651Z,102116.97
2022-11-21T14:48:32.644Z,102123.94
2022-11-21T14:51:20.718Z,102104.69
2022-11-21T14:53:53.844Z,102121.31
2022-11-21T14:56:49.328Z,102112.66
2022-11-21T14:59:43.567Z,102106.53
2022-11-21T15:02:41.071Z,102112.59
2022-11-21T15:06:00.893Z,102115.22
2022-11-21T15:11:58.829Z,102104.75
2022-11-21T15:15:02.876Z,102096.06
2022-11-21T15:18:23.981Z,102060.06
2022-11-21T15:20:57.055Z,102098.63
2022-11-21T15:23:47.957Z,102073.19
2022-11-21T15:26:53.884Z,102113.41
2022-11-21T15:29:41.815Z,102120.41
2022-11-21T15:32:30.572Z,102111.69
2022-11-21T15:35:17.316Z,102105.56
2022-11-21T15:38:09.048Z,102108.22
2022-11-21T15:40:55.764Z,102107.41
2022-11-21T15:44:00.758Z,102084.72
2022-11-21T15:46:55.687Z,102104.78
2022-11-21T15:49:42.367Z,102086.34
2022-11-21T15:52:32.263Z,102000.22
2022-11-21T15:55:18.964Z,102100.38
2022-11-21T15:58:05.764Z,102090.81
2022-11-21T16:00:52.526Z,102097.81
2022-11-21T16:03:39.362Z,102096.97
2022-11-21T16:06:26.108Z,102092.63
2022-11-21T16:09:13.270Z,102083.06
2022-11-21T16:12:02.526Z,102089.16
2022-11-21T16:14:49.239Z,102083.94
2022-11-21T16:17:35.992Z,102065.59
2022-11-21T16:20:22.707Z,102077.81
2022-11-21T16:23:09.634Z,102081.31
2022-11-21T16:25:56.342Z,102085.66
2022-11-21T16:28:43.042Z,102087.34
2022-11-21T16:31:40.532Z,102090.81
2022-11-21T16:34:27.278Z,102093.41
2022-11-21T16:37:15.182Z,102096.00
2022-11-21T16:40:01.905Z,102088.16
2022-11-21T16:42:48.603Z,102084.63
2022-11-21T16:45:35.340Z,102085.47
2022-11-21T16:48:22.046Z,102068.91
2022-11-21T16:51:09.451Z,102052.22
2022-11-21T16:53:56.380Z,102019.00
2022-11-21T16:56:43.073Z,102063.72
2022-11-21T16:59:29.933Z,102064.59
2022-11-21T17:02:16.967Z,102064.59
2022-11-21T17:05:03.697Z,102053.13
2022-11-21T17:07:53.980Z,102073.28
2022-11-21T17:10:40.731Z,102076.78
2022-11-21T17:13:27.443Z,102079.41
2022-11-21T17:16:14.194Z,102072.47
2022-11-21T17:19:01.158Z,102081.22
2022-11-21T17:21:49.339Z,102082.13
2022-11-21T17:24:36.243Z,102071.59
2022-11-21T17:27:23.235Z,102074.25
2022-11-21T17:30:10.845Z,102076.88
2022-11-21T17:32:57.554Z,102083.03
2022-11-21T17:35:44.319Z,102082.16
2022-11-21T17:38:11.077Z,102086.56
2022-11-21T17:40:59.033Z,102084.78
2022-11-21T17:43:47.105Z,102079.56
2022-11-21T17:46:38.959Z,102072.59
2022-11-21T17:49:25.885Z,102077.84
2022-11-21T17:52:12.804Z,102077.81
2022-11-21T17:54:59.560Z,102001.53
2022-11-21T17:57:46.958Z,102075.22
2022-11-21T18:00:34.310Z,102078.78
2022-11-21T18:03:21.007Z,102075.28
2022-11-21T18:06:07.910Z,102075.28
2022-11-21T18:08:56.538Z,102074.41
2022-11-21T18:11:43.322Z,102053.34
2022-11-21T18:14:31.931Z,102075.25
2022-11-21T18:17:18.719Z,102070.00
2022-11-21T18:20:05.425Z,102064.78
2022-11-21T18:22:52.169Z,102048.19
2022-11-21T18:25:39.100Z,102052.63
2022-11-21T18:28:25.925Z,102055.22
2022-11-21T18:31:12.651Z,102065.69
2022-11-21T18:33:59.847Z,102070.94
2022-11-21T18:36:48.770Z,102067.44
2022-11-21T18:39:35.534Z,102062.16
2022-11-21T18:42:22.242Z,102059.44
2022-11-21T18:45:08.971Z,102070.97
2022-11-21T18:47:55.815Z,102075.31
2022-11-21T18:50:42.526Z,102071.00
2022-11-21T18:53:29.237Z,102069.22
2022-11-21T18:56:15.982Z,102060.50
2022-11-21T18:59:04.159Z,102003.47
2022-11-21T19:01:51.072Z,102007.78
2022-11-21T19:04:37.856Z,102073.56
2022-11-21T19:07:24.689Z,102071.81
2022-11-21T19:13:18.132Z,102038.53
2022-11-21T19:16:05.306Z,102065.75
2022-11-21T19:19:32.355Z,102016.56
2022-11-21T19:22:04.027Z,102076.25
2022-11-21T19:24:50.732Z,102079.78
2022-11-21T19:27:37.506Z,102078.03
2022-11-21T19:30:24.635Z,102051.78
2022-11-21T19:33:11.355Z,101976.25
2022-11-21T19:35:58.073Z,102069.38
2022-11-21T19:38:50.270Z,102072.84
2022-11-21T19:41:40.539Z,102072.00
2022-11-21T19:44:27.351Z,102073.75
2022-11-21T19:47:14.074Z,102074.63
2022-11-21T19:50:00.794Z,102075.47
2022-11-21T19:52:48.138Z,102078.13
2022-11-21T19:55:34.855Z,102080.75
2022-11-21T19:58:21.596Z,102072.03
2022-11-21T20:01:08.402Z,102077.28
2022-11-21T20:03:55.896Z,102029.88
2022-11-21T20:06:56.817Z,102074.69
2022-11-21T20:09:44.062Z,102076.41
2022-11-21T20:12:30.781Z,102073.81
